createdAt,value
2022-10-06T00:02:23.329Z,15.52
2022-10-06T00:04:49.920Z,15.45
2022-10-06T00:07:17.373Z,15.51
2022-10-06T00:09:43.975Z,15.55
2022-10-06T00:12:10.627Z,15.52
2022-10-06T00:14:37.794Z,15.61
2022-10-06T00:17:05.092Z,15.49
2022-10-06T00:19:31.582Z,15.57
2022-10-06T00:21:58.434Z,15.60
2022-10-06T00:24:24.927Z,15.55
2022-10-06T00:26:51.416Z,15.59
2022-10-06T00:29:18.739Z,15.63
2022-10-06T00:31:45.202Z,15.62
2022-10-06T00:34:11.624Z,15.55
2022-10-06T00:36:38.023Z,15.59
2022-10-06T00:39:04.463Z,15.52
2022-10-06T00:41:31.132Z,15.59
2022-10-06T00:43:58.971Z,15.45
2022-10-06T00:46:40.756Z,15.48
2022-10-06T00:49:25.371Z,15.50
2022-10-06T00:51:57.742Z,15.38
2022-10-06T00:54:25.323Z,15.34
2022-10-06T00:56:52.422Z,15.26
2022-10-06T00:59:19.098Z,15.27
2022-10-06T01:02:22.964Z,15.20
2022-10-06T01:04:55.594Z,15.20
2022-10-06T01:07:24.240Z,15.13
2022-10-06T01:09:50.823Z,15.19
2022-10-06T01:12:17.315Z,15.09
2022-10-06T01:14:43.818Z,15.20
2022-10-06T01:17:24.872Z,15.15
2022-10-06T01:20:01.333Z,15.14
2022-10-06T01:22:41.159Z,15.18
2022-10-06T01:25:10.038Z,15.16
2022-10-06T01:27:39.070Z,15.13
2022-10-06T01:30:09.043Z,15.07
2022-10-06T01:32:38.862Z,15.05
2022-10-06T01:35:06.737Z,15.06
2022-10-06T01:37:33.174Z,15.04
2022-10-06T01:39:59.587Z,14.97
2022-10-06T01:42:26.417Z,15.09
2022-10-06T01:44:52.849Z,15.07
2022-10-06T01:47:19.226Z,15.04
2022-10-06T01:49:45.623Z,15.06
2022-10-06T01:52:12.083Z,14.96
2022-10-06T01:54:38.541Z,15.07
2022-10-06T01:57:06.322Z,14.92
2022-10-06T01:59:32.741Z,14.89
2022-10-06T02:01:59.488Z,14.93
2022-10-06T02:04:26.038Z,14.91
2022-10-06T02:06:55.349Z,14.92
2022-10-06T02:09:22.727Z,14.93
2022-10-06T02:11:49.294Z,14.83
2022-10-06T02:14:18.020Z,14.87
2022-10-06T02:16:45.060Z,14.82
2022-10-06T02:19:11.580Z,14.76
2022-10-06T02:21:38.830Z,14.83
2022-10-06T02:24:05.362Z,14.82
2022-10-06T02:26:32.163Z,14.81
2022-10-06T02:28:58.723Z,14.88
2022-10-06T02:31:25.559Z,14.84
2022-10-06T02:33:52.023Z,14.85
2022-10-06T02:36:18.441Z,14.76
2022-10-06T02:38:44.856Z,14.85
2022-10-06T02:41:11.269Z,14.81
2022-10-06T02:43:37.862Z,14.78
2022-10-06T02:46:12.017Z,14.81
2022-10-06T02:48:40.634Z,14.84
2022-10-06T02:51:12.304Z,14.70
2022-10-06T02:53:39.819Z,14.78
2022-10-06T02:56:08.669Z,14.74
2022-10-06T02:58:35.071Z,14.64
2022-10-06T03:01:05.377Z,14.73
2022-10-06T03:03:34.832Z,14.71
2022-10-06T03:06:05.676Z,14.74
2022-10-06T03:08:32.813Z,14.71
2022-10-06T03:11:01.103Z,14.70
2022-10-06T03:13:27.867Z,14.63
2022-10-06T03:15:54.376Z,14.68
2022-10-06T03:18:21.579Z,14.64
2022-10-06T03:20:48.595Z,14.51
2022-10-06T03:23:15.150Z,14.51
2022-10-06T03:25:41.518Z,14.53
2022-10-06T03:28:07.923Z,14.58
2022-10-06T03:30:34.359Z,14.56
2022-10-06T03:33:01.770Z,14.56
2022-10-06T03:35:28.187Z,14.49
2022-10-06T03:37:54.604Z,14.36
2022-10-06T03:40:20.978Z,14.39
2022-10-06T03:42:47.364Z,14.42
2022-10-06T03:45:13.832Z,14.45
2022-10-06T03:47:40.215Z,14.42
2022-10-06T03:50:07.177Z,14.41
2022-10-06T03:52:34.081Z,14.43
2022-10-06T03:55:00.455Z,14.29
2022-10-06T03:57:26.838Z,14.26
2022-10-06T03:59:53.280Z,14.25
2022-10-06T04:02:19.729Z,14.21
2022-10-06T04:04:46.198Z,14.22
2022-10-06T04:07:12.600Z,14.23
2022-10-06T04:09:39.091Z,14.28
2022-10-06T04:12:05.511Z,14.20
2022-10-06T04:14:31.917Z,14.21
2022-10-06T04:16:58.651Z,14.15
2022-10-06T04:19:25.309Z,14.17
2022-10-06T04:21:51.714Z,14.15
2022-10-06T04:24:18.539Z,14.05
2022-10-06T04:26:46.359Z,14.00
2022-10-06T04:29:13.564Z,13.99
2022-10-06T04:31:42.351Z,14.03
2022-10-06T04:34:10.882Z,13.99
2022-10-06T04:36:40.889Z,13.95
2022-10-06T04:39:10.141Z,13.84
2022-10-06T04:41:39.027Z,13.85
2022-10-06T04:44:06.664Z,13.88
2022-10-06T04:46:43.708Z,13.80
2022-10-06T04:49:17.918Z,13.90
2022-10-06T04:51:46.324Z,13.86
2022-10-06T04:54:12.841Z,13.82
2022-10-06T04:56:39.245Z,13.87
2022-10-06T04:59:05.648Z,13.83
2022-10-06T05:01:34.236Z,13.78
2022-10-06T05:04:02.229Z,13.77
2022-10-06T05:06:34.701Z,13.74
2022-10-06T05:09:05.078Z,13.79
2022-10-06T05:11:31.859Z,13.69
2022-10-06T05:13:59.369Z,13.66
2022-10-06T05:16:28.495Z,13.67
2022-10-06T05:18:54.964Z,13.74
2022-10-06T05:21:24.307Z,13.71
2022-10-06T05:23:51.051Z,13.68
2022-10-06T05:26:20.649Z,13.59
2022-10-06T05:28:47.343Z,13.50
2022-10-06T05:31:20.755Z,13.43
2022-10-06T05:33:47.952Z,13.48
2022-10-06T05:36:19.554Z,13.44
2022-10-06T05:38:47.063Z,13.43
2022-10-06T05:41:16.281Z,13.32
2022-10-06T05:43:43.296Z,13.40
2022-10-06T05:46:17.586Z,13.30
2022-10-06T05:48:47.959Z,13.30
2022-10-06T05:51:14.966Z,13.30
2022-10-06T05:53:41.630Z,13.28
2022-10-06T05:56:26.629Z,13.29
2022-10-06T05:58:54.858Z,13.27
2022-10-06T06:01:32.144Z,13.29
2022-10-06T06:04:01.214Z,13.22
2022-10-06T06:06:34.445Z,13.19
2022-10-06T06:09:04.240Z,13.17
2022-10-06T06:11:31.626Z,13.20
2022-10-06T06:13:58.683Z,13.21
2022-10-06T06:16:26.392Z,13.24
2022-10-06T06:18:52.963Z,13.20
2022-10-06T06:21:19.566Z,13.25
2022-10-06T06:23:48.123Z,13.22
2022-10-06T06:26:17.359Z,13.19
2022-10-06T21:56:09.966Z,11.39
2022-10-06T21:58:36.383Z,11.31
2022-10-06T22:01:07.717Z,11.33
2022-10-06T22:03:38.723Z,11.25
2022-10-06T22:06:07.375Z,11.28
2022-10-06T22:08:35.744Z,11.29
2022-10-06T22:11:07.407Z,11.30
2022-10-06T22:13:33.967Z,11.24
2022-10-06T22:16:04.161Z,11.21
2022-10-06T22:18:34.916Z,11.12
2022-10-06T22:21:01.308Z,11.10
2022-10-06T22:23:28.080Z,11.02
2022-10-06T22:25:57.889Z,10.99
2022-10-06T22:28:25.283Z,10.97
2022-10-06T22:31:11.306Z,10.97
2022-10-06T22:33:39.660Z,10.93
2022-10-06T22:36:07.169Z,10.95
2022-10-06T22:38:34.438Z,10.97
2022-10-06T22:41:02.329Z,10.93
2022-10-06T22:43:29.659Z,10.89
2022-10-06T22:45:56.850Z,10.88
2022-10-06T22:48:23.702Z,10.86
2022-10-06T22:50:50.760Z,10.83
2022-10-06T22:53:21.216Z,10.79
2022-10-06T22:55:47.858Z,10.77
2022-10-06T22:58:15.442Z,10.72
2022-10-06T23:00:42.849Z,10.68
2022-10-06T23:03:09.588Z,10.59
2022-10-06T23:05:36.804Z,10.51
2022-10-06T23:08:04.410Z,10.44
2022-10-06T23:10:33.571Z,10.43
2022-10-06T23:13:00.363Z,10.43
2022-10-06T23:15:27.502Z,10.43
2022-10-06T23:17:54.221Z,10.43
2022-10-06T23:20:21.303Z,10.43
2022-10-06T23:22:47.885Z,10.36
2022-10-06T23:25:14.382Z,10.25
2022-10-06T23:27:40.952Z,10.25
2022-10-06T23:30:08.213Z,10.22
2022-10-06T23:32:34.663Z,10.24
2022-10-06T23:35:01.083Z,10.27
2022-10-06T23:37:28.311Z,10.22
2022-10-06T23:39:54.701Z,10.13
2022-10-06T23:42:21.122Z,10.10
2022-10-06T23:44:47.533Z,10.07
2022-10-06T23:47:13.940Z,10.05
2022-10-06T23:49:43.420Z,10.05
2022-10-06T23:52:09.954Z,10.04
2022-10-06T23:54:36.417Z,10.07
2022-10-06T23:57:02.927Z,10.03
2022-10-06T23:59:29.561Z,10.04
